sensor_id;sensor_type;location;lat;lon;timestamp;temperature;humidity
10314;DHT22;5202;49.138;10.090;2023-02-24T00:00:18;8.10;99.90
10314;DHT22;5202;49.138;10.090;2023-02-24T00:03:01;8.10;99.90
10314;DHT22;5202;49.138;10.090;2023-02-24T00:05:34;8.00;99.90
10314;DHT22;5202;49.138;10.090;2023-02-24T00:08:02;8.00;99.90
10314;DHT22;5202;49.138;10.090;2023-02-24T00:10:31;8.00;99.90
10314;DHT22;5202;49.138;10.090;2023-02-24T00:12:59;8.10;99.90
10314;DHT22;5202;49.138;10.090;2023-02-24T00:15:28;8.10;99.90
10314;DHT22;5202;49.138;10.090;2023-02-24T00:17:56;8.10;99.90
10314;DHT22;5202;49.138;10.090;2023-02-24T00:20:26;8.10;99.90
10314;DHT22;5202;49.138;10.090;2023-02-24T00:22:59;8.20;99.90
10314;DHT22;5202;49.138;10.090;2023-02-24T00:25:27;8.20;99.90
10314;DHT22;5202;49.138;10.090;2023-02-24T00:27:55;8.20;99.90
10314;DHT22;5202;49.138;10.090;2023-02-24T00:30:51;8.30;99.90
10314;DHT22;5202;49.138;10.090;2023-02-24T00:33:21;8.30;99.90
10314;DHT22;5202;49.138;10.090;2023-02-24T00:35:51;8.20;99.90
10314;DHT22;5202;49.138;10.090;2023-02-24T00:38:22;8.10;99.90
10314;DHT22;5202;49.138;10.090;2023-02-24T00:40:51;8.10;99.90
10314;DHT22;5202;49.138;10.090;2023-02-24T00:43:21;8.10;99.90
10314;DHT22;5202;49.138;10.090;2023-02-24T00:45:49;8.00;99.90
10314;DHT22;5202;49.138;10.090;2023-02-24T00:48:19;7.90;99.90
10314;DHT22;5202;49.138;10.090;2023-02-24T00:50:48;7.90;99.90
10314;DHT22;5202;49.138;10.090;2023-02-24T00:53:19;7.90;99.90
10314;DHT22;5202;49.138;10.090;2023-02-24T00:55:47;7.90;99.90
10314;DHT22;5202;49.138;10.090;2023-02-24T00:58:27;8.00;99.90
10314;DHT22;5202;49.138;10.090;2023-02-24T01:00:55;8.00;99.90
10314;DHT22;5202;49.138;10.090;2023-02-24T01:03:24;8.00;99.90
10314;DHT22;5202;49.138;10.090;2023-02-24T01:06:09;8.00;99.90
10314;DHT22;5202;49.138;10.090;2023-02-24T01:08:40;8.00;99.90
10314;DHT22;5202;49.138;10.090;2023-02-24T01:11:13;8.00;99.90
10314;DHT22;5202;49.138;10.090;2023-02-24T01:14:03;8.10;99.90
10314;DHT22;5202;49.138;10.090;2023-02-24T01:16:32;8.00;99.90
10314;DHT22;5202;49.138;10.090;2023-02-24T01:19:00;7.90;99.90
10314;DHT22;5202;49.138;10.090;2023-02-24T01:21:28;8.00;99.90
10314;DHT22;5202;49.138;10.090;2023-02-24T01:23:58;7.90;99.90
10314;DHT22;5202;49.138;10.090;2023-02-24T01:26:26;8.00;99.90
10314;DHT22;5202;49.138;10.090;2023-02-24T01:28:56;8.10;99.90
10314;DHT22;5202;49.138;10.090;2023-02-24T01:31:24;8.10;99.90
10314;DHT22;5202;49.138;10.090;2023-02-24T01:33:54;8.20;99.90
10314;DHT22;5202;49.138;10.090;2023-02-24T01:36:24;8.20;99.90
10314;DHT22;5202;49.138;10.090;2023-02-24T01:38:53;8.20;99.90
10314;DHT22;5202;49.138;10.090;2023-02-24T01:41:23;8.30;99.90
10314;DHT22;5202;49.138;10.090;2023-02-24T01:43:59;8.30;99.90
10314;DHT22;5202;49.138;10.090;2023-02-24T01:46:34;8.20;99.90
10314;DHT22;5202;49.138;10.090;2023-02-24T01:49:07;8.20;99.90
10314;DHT22;5202;49.138;10.090;2023-02-24T01:51:42;8.20;99.90
10314;DHT22;5202;49.138;10.090;2023-02-24T01:54:15;8.20;99.90
10314;DHT22;5202;49.138;10.090;2023-02-24T01:56:49;8.20;99.90
10314;DHT22;5202;49.138;10.090;2023-02-24T01:59:19;8.20;99.90
10314;DHT22;5202;49.138;10.090;2023-02-24T02:01:50;8.20;99.90
10314;DHT22;5202;49.138;10.090;2023-02-24T02:04:27;8.20;99.90
10314;DHT22;5202;49.138;10.090;2023-02-24T02:07:01;8.20;99.90
10314;DHT22;5202;49.138;10.090;2023-02-24T02:09:30;8.30;99.90
10314;DHT22;5202;49.138;10.090;2023-02-24T02:12:01;8.30;99.90
10314;DHT22;5202;49.138;10.090;2023-02-24T02:14:30;8.20;99.90
10314;DHT22;5202;49.138;10.090;2023-02-24T02:17:07;8.20;99.90
10314;DHT22;5202;49.138;10.090;2023-02-24T02:20:17;8.20;99.90
10314;DHT22;5202;49.138;10.090;2023-02-24T02:23:20;8.30;99.90
10314;DHT22;5202;49.138;10.090;2023-02-24T02:29:34;8.20;99.90
10314;DHT22;5202;49.138;10.090;2023-02-24T02:32:40;8.20;99.90
10314;DHT22;5202;49.138;10.090;2023-02-24T02:35:22;8.30;99.90
10314;DHT22;5202;49.138;10.090;2023-02-24T02:37:55;8.20;99.90
10314;DHT22;5202;49.138;10.090;2023-02-24T02:40:35;8.30;99.90
10314;DHT22;5202;49.138;10.090;2023-02-24T02:43:11;8.30;99.90
10314;DHT22;5202;49.138;10.090;2023-02-24T02:45:45;8.30;99.90
10314;DHT22;5202;49.138;10.090;2023-02-24T02:48:19;8.20;99.90
10314;DHT22;5202;49.138;10.090;2023-02-24T02:50:54;8.20;99.90
10314;DHT22;5202;49.138;10.090;2023-02-24T02:53:32;8.20;99.90
10314;DHT22;5202;49.138;10.090;2023-02-24T02:56:09;8.10;99.90
10314;DHT22;5202;49.138;10.090;2023-02-24T02:58:43;8.10;99.90
10314;DHT22;5202;49.138;10.090;2023-02-24T03:01:17;8.00;99.90
10314;DHT22;5202;49.138;10.090;2023-02-24T03:04:24;8.00;99.90
10314;DHT22;5202;49.138;10.090;2023-02-24T03:07:02;7.90;99.90
10314;DHT22;5202;49.138;10.090;2023-02-24T03:09:35;7.90;99.90
10314;DHT22;5202;49.138;10.090;2023-02-24T03:12:09;7.90;99.90
10314;DHT22;5202;49.138;10.090;2023-02-24T03:14:43;7.90;99.90
10314;DHT22;5202;49.138;10.090;2023-02-24T03:17:43;7.90;99.90
10314;DHT22;5202;49.138;10.090;2023-02-24T03:20:18;7.90;99.90
10314;DHT22;5202;49.138;10.090;2023-02-24T03:22:55;7.90;99.90
10314;DHT22;5202;49.138;10.090;2023-02-24T03:25:31;7.90;99.90
10314;DHT22;5202;49.138;10.090;2023-02-24T03:28:12;7.90;99.90
10314;DHT22;5202;49.138;10.090;2023-02-24T03:30:47;7.90;99.90
10314;DHT22;5202;49.138;10.090;2023-02-24T03:33:22;8.00;99.90
10314;DHT22;5202;49.138;10.090;2023-02-24T03:35:53;8.00;99.90
10314;DHT22;5202;49.138;10.090;2023-02-24T03:38:31;8.00;99.90
10314;DHT22;5202;49.138;10.090;2023-02-24T03:41:04;8.00;99.90
10314;DHT22;5202;49.138;10.090;2023-02-24T03:43:40;7.90;99.90
10314;DHT22;5202;49.138;10.090;2023-02-24T03:46:13;8.00;99.90
10314;DHT22;5202;49.138;10.090;2023-02-24T03:48:47;8.00;99.90
10314;DHT22;5202;49.138;10.090;2023-02-24T03:51:19;8.00;99.90
10314;DHT22;5202;49.138;10.090;2023-02-24T03:54:11;8.00;99.90
10314;DHT22;5202;49.138;10.090;2023-02-24T03:56:53;8.00;99.90
10314;DHT22;5202;49.138;10.090;2023-02-24T03:59:36;8.00;99.90
10314;DHT22;5202;49.138;10.090;2023-02-24T04:02:13;7.90;99.90
10314;DHT22;5202;49.138;10.090;2023-02-24T04:04:53;7.90;99.90
10314;DHT22;5202;49.138;10.090;2023-02-24T04:07:36;7.80;99.90
10314;DHT22;5202;49.138;10.090;2023-02-24T04:10:15;7.80;99.90
10314;DHT22;5202;49.138;10.090;2023-02-24T04:12:52;7.90;99.90
10314;DHT22;5202;49.138;10.090;2023-02-24T04:15:25;7.90;99.90
10314;DHT22;5202;49.138;10.090;2023-02-24T04:18:00;7.90;99.90
10314;DHT22;5202;49.138;10.090;2023-02-24T04:20:36;7.90;99.90
10314;DHT22;5202;49.138;10.090;2023-02-24T04:23:11;7.90;99.90
10314;DHT22;5202;49.138;10.090;2023-02-24T04:25:46;7.90;99.90
10314;DHT22;5202;49.138;10.090;2023-02-24T04:28:16;7.90;99.90
10314;DHT22;5202;49.138;10.090;2023-02-24T04:30:50;7.90;99.90
10314;DHT22;5202;49.138;10.090;2023-02-24T04:33:21;7.90;99.90
10314;DHT22;5202;49.138;10.090;2023-02-24T04:35:52;7.90;99.90
10314;DHT22;5202;49.138;10.090;2023-02-24T04:38:21;7.90;99.90
10314;DHT22;5202;49.138;10.090;2023-02-24T04:40:51;7.90;99.90
10314;DHT22;5202;49.138;10.090;2023-02-24T04:43:20;7.90;99.90
10314;DHT22;5202;49.138;10.090;2023-02-24T04:45:48;7.90;99.90
10314;DHT22;5202;49.138;10.090;2023-02-24T04:48:17;7.90;99.90
10314;DHT22;5202;49.138;10.090;2023-02-24T04:50:46;7.90;99.90
10314;DHT22;5202;49.138;10.090;2023-02-24T04:53:21;7.90;99.90
10314;DHT22;5202;49.138;10.090;2023-02-24T04:55:54;7.90;99.90
10314;DHT22;5202;49.138;10.090;2023-02-24T04:58:24;7.90;99.90
10314;DHT22;5202;49.138;10.090;2023-02-24T05:00:54;7.90;99.90
10314;DHT22;5202;49.138;10.090;2023-02-24T05:03:24;7.80;99.90
10314;DHT22;5202;49.138;10.090;2023-02-24T05:05:57;7.80;99.90
10314;DHT22;5202;49.138;10.090;2023-02-24T05:08:28;7.90;99.90
10314;DHT22;5202;49.138;10.090;2023-02-24T05:10:59;7.90;99.90
10314;DHT22;5202;49.138;10.090;2023-02-24T05:13:30;7.80;99.90
10314;DHT22;5202;49.138;10.090;2023-02-24T05:16:03;7.80;99.90
10314;DHT22;5202;49.138;10.090;2023-02-24T05:18:33;7.80;99.90
10314;DHT22;5202;49.138;10.090;2023-02-24T05:21:05;7.80;99.90
10314;DHT22;5202;49.138;10.090;2023-02-24T05:23:53;7.80;99.90
10314;DHT22;5202;49.138;10.090;2023-02-24T05:26:23;7.70;99.90
10314;DHT22;5202;49.138;10.090;2023-02-24T05:28:53;7.70;99.90
10314;DHT22;5202;49.138;10.090;2023-02-24T05:31:24;7.70;99.90
10314;DHT22;5202;49.138;10.090;2023-02-24T05:33:56;7.70;99.90
10314;DHT22;5202;49.138;10.090;2023-02-24T05:36:26;7.70;99.90
10314;DHT22;5202;49.138;10.090;2023-02-24T05:38:56;7.70;99.90
10314;DHT22;5202;49.138;10.090;2023-02-24T05:41:26;7.60;99.90
10314;DHT22;5202;49.138;10.090;2023-02-24T05:43:58;7.50;99.90
10314;DHT22;5202;49.138;10.090;2023-02-24T05:46:32;7.50;99.90
10314;DHT22;5202;49.138;10.090;2023-02-24T05:49:04;7.40;99.90
10314;DHT22;5202;49.138;10.090;2023-02-24T05:51:37;7.20;99.90
10314;DHT22;5202;49.138;10.090;2023-02-24T05:54:10;7.20;99.90
10314;DHT22;5202;49.138;10.090;2023-02-24T05:56:41;7.20;99.90
10314;DHT22;5202;49.138;10.090;2023-02-24T05:59:11;7.20;99.90
10314;DHT22;5202;49.138;10.090;2023-02-24T06:01:44;7.30;99.90
10314;DHT22;5202;49.138;10.090;2023-02-24T06:04:14;7.30;99.90
10314;DHT22;5202;49.138;10.090;2023-02-24T06:06:53;7.30;99.90
10314;DHT22;5202;49.138;10.090;2023-02-24T06:09:21;7.30;99.90
10314;DHT22;5202;49.138;10.090;2023-02-24T06:11:51;7.20;99.90
10314;DHT22;5202;49.138;10.090;2023-02-24T06:14:20;7.20;99.90
10314;DHT22;5202;49.138;10.090;2023-02-24T06:16:48;7.20;99.90
10314;DHT22;5202;49.138;10.090;2023-02-24T06:19:17;7.20;99.90
10314;DHT22;5202;49.138;10.090;2023-02-24T06:21:46;7.20;99.90
10314;DHT22;5202;49.138;10.090;2023-02-24T06:24:15;7.20;99.90
10314;DHT22;5202;49.138;10.090;2023-02-24T06:26:44;7.20;99.90
10314;DHT22;5202;49.138;10.090;2023-02-24T06:29:16;7.20;99.90
10314;DHT22;5202;49.138;10.090;2023-02-24T06:31:45;7.10;99.90
10314;DHT22;5202;49.138;10.090;2023-02-24T06:34:14;7.10;99.90
10314;DHT22;5202;49.138;10.090;2023-02-24T06:36:44;7.10;99.90
10314;DHT22;5202;49.138;10.090;2023-02-24T06:39:12;7.10;99.90
10314;DHT22;5202;49.138;10.090;2023-02-24T06:41:42;7.20;99.90
10314;DHT22;5202;49.138;10.090;2023-02-24T06:44:11;7.10;99.90
10314;DHT22;5202;49.138;10.090;2023-02-24T06:46:40;7.10;99.90
10314;DHT22;5202;49.138;10.090;2023-02-24T06:49:09;7.10;99.90
10314;DHT22;5202;49.138;10.090;2023-02-24T06:51:38;7.00;99.90
10314;DHT22;5202;49.138;10.090;2023-02-24T06:54:09;7.10;99.90
10314;DHT22;5202;49.138;10.090;2023-02-24T06:56:38;7.10;99.90
10314;DHT22;5202;49.138;10.090;2023-02-24T06:59:07;7.10;99.90
10314;DHT22;5202;49.138;10.090;2023-02-24T07:01:38;7.20;99.90
10314;DHT22;5202;49.138;10.090;2023-02-24T07:04:16;7.20;99.90
10314;DHT22;5202;49.138;10.090;2023-02-24T07:06:57;7.30;99.90
10314;DHT22;5202;49.138;10.090;2023-02-24T07:09:29;7.30;99.90
10314;DHT22;5202;49.138;10.090;2023-02-24T07:11:58;7.30;99.90
10314;DHT22;5202;49.138;10.090;2023-02-24T07:14:29;7.30;99.90
10314;DHT22;5202;49.138;10.090;2023-02-24T07:16:57;7.40;99.90
10314;DHT22;5202;49.138;10.090;2023-02-24T07:19:29;7.40;99.90
10314;DHT22;5202;49.138;10.090;2023-02-24T07:22:00;7.50;99.90
10314;DHT22;5202;49.138;10.090;2023-02-24T07:24:31;7.50;99.90
10314;DHT22;5202;49.138;10.090;2023-02-24T07:27:04;7.60;99.90
10314;DHT22;5202;49.138;10.090;2023-02-24T07:29:34;7.60;99.90
10314;DHT22;5202;49.138;10.090;2023-02-24T07:32:05;7.60;99.90
10314;DHT22;5202;49.138;10.090;2023-02-24T07:34:37;7.60;99.90
10314;DHT22;5202;49.138;10.090;2023-02-24T07:37:07;7.60;99.90
10314;DHT22;5202;49.138;10.090;2023-02-24T07:39:38;7.60;99.90
10314;DHT22;5202;49.138;10.090;2023-02-24T07:42:10;7.60;99.90
10314;DHT22;5202;49.138;10.090;2023-02-24T07:44:43;7.70;99.90
10314;DHT22;5202;49.138;10.090;2023-02-24T07:47:18;7.70;99.90
10314;DHT22;5202;49.138;10.090;2023-02-24T07:49:48;7.80;99.90
10314;DHT22;5202;49.138;10.090;2023-02-24T07:52:16;7.80;99.90
10314;DHT22;5202;49.138;10.090;2023-02-24T07:54:45;7.80;99.90
10314;DHT22;5202;49.138;10.090;2023-02-24T07:57:15;7.80;99.90
10314;DHT22;5202;49.138;10.090;2023-02-24T07:59:44;7.80;99.90
10314;DHT22;5202;49.138;10.090;2023-02-24T08:02:14;7.90;99.90
10314;DHT22;5202;49.138;10.090;2023-02-24T08:04:44;7.90;99.90
10314;DHT22;5202;49.138;10.090;2023-02-24T08:07:19;7.90;99.90
10314;DHT22;5202;49.138;10.090;2023-02-24T08:09:51;7.90;99.90
10314;DHT22;5202;49.138;10.090;2023-02-24T08:12:51;8.00;99.90
10314;DHT22;5202;49.138;10.090;2023-02-24T08:15:25;8.00;99.90
10314;DHT22;5202;49.138;10.090;2023-02-24T08:18:00;7.90;99.90
10314;DHT22;5202;49.138;10.090;2023-02-24T08:20:30;7.90;99.90
10314;DHT22;5202;49.138;10.090;2023-02-24T08:23:03;7.80;99.90
10314;DHT22;5202;49.138;10.090;2023-02-24T08:25:34;7.80;99.90
10314;DHT22;5202;49.138;10.090;2023-02-24T08:28:07;7.80;99.90
10314;DHT22;5202;49.138;10.090;2023-02-24T08:30:39;7.80;99.90
10314;DHT22;5202;49.138;10.090;2023-02-24T08:33:13;7.70;99.90
10314;DHT22;5202;49.138;10.090;2023-02-24T08:35:50;7.70;99.90
10314;DHT22;5202;49.138;10.090;2023-02-24T08:38:25;7.70;99.90
10314;DHT22;5202;49.138;10.090;2023-02-24T08:41:05;7.80;99.90
10314;DHT22;5202;49.138;10.090;2023-02-24T08:43:39;7.80;99.90
10314;DHT22;5202;49.138;10.090;2023-02-24T08:46:14;7.80;99.90
10314;DHT22;5202;49.138;10.090;2023-02-24T08:48:54;7.90;99.90
10314;DHT22;5202;49.138;10.090;2023-02-24T08:51:28;7.90;99.90
10314;DHT22;5202;49.138;10.090;2023-02-24T08:54:04;7.90;99.90
10314;DHT22;5202;49.138;10.090;2023-02-24T08:56:37;8.00;99.90
10314;DHT22;5202;49.138;10.090;2023-02-24T08:59:11;8.00;99.90
10314;DHT22;5202;49.138;10.090;2023-02-24T09:01:55;8.00;99.90
10314;DHT22;5202;49.138;10.090;2023-02-24T09:04:38;8.00;99.90
10314;DHT22;5202;49.138;10.090;2023-02-24T09:07:12;8.10;99.90
10314;DHT22;5202;49.138;10.090;2023-02-24T09:09:43;8.10;99.90
10314;DHT22;5202;49.138;10.090;2023-02-24T09:12:12;8.20;99.90
10314;DHT22;5202;49.138;10.090;2023-02-24T09:14:49;8.20;99.90
10314;DHT22;5202;49.138;10.090;2023-02-24T09:17:23;8.20;99.90
10314;DHT22;5202;49.138;10.090;2023-02-24T09:20:17;8.10;99.90
10314;DHT22;5202;49.138;10.090;2023-02-24T09:23:04;8.00;99.90
10314;DHT22;5202;49.138;10.090;2023-02-24T09:25:38;7.90;99.90
10314;DHT22;5202;49.138;10.090;2023-02-24T09:28:13;7.90;99.90
10314;DHT22;5202;49.138;10.090;2023-02-24T09:30:45;7.90;99.90
10314;DHT22;5202;49.138;10.090;2023-02-24T09:33:23;7.90;99.90
10314;DHT22;5202;49.138;10.090;2023-02-24T09:35:55;7.90;99.90
10314;DHT22;5202;49.138;10.090;2023-02-24T09:38:36;8.00;99.90
10314;DHT22;5202;49.138;10.090;2023-02-24T09:41:28;8.00;99.90
10314;DHT22;5202;49.138;10.090;2023-02-24T09:44:02;8.10;99.90
10314;DHT22;5202;49.138;10.090;2023-02-24T09:46:38;8.10;99.90
10314;DHT22;5202;49.138;10.090;2023-02-24T09:49:22;8.00;99.90
10314;DHT22;5202;49.138;10.090;2023-02-24T09:51:51;8.00;99.90
10314;DHT22;5202;49.138;10.090;2023-02-24T09:54:30;8.00;99.90
10314;DHT22;5202;49.138;10.090;2023-02-24T09:57:02;8.10;99.90
10314;DHT22;5202;49.138;10.090;2023-02-24T09:59:45;8.10;99.90
10314;DHT22;5202;49.138;10.090;2023-02-24T10:02:40;8.20;99.90
10314;DHT22;5202;49.138;10.090;2023-02-24T10:05:21;8.20;99.90
10314;DHT22;5202;49.138;10.090;2023-02-24T10:07:53;8.30;99.90
10314;DHT22;5202;49.138;10.090;2023-02-24T10:10:26;8.20;99.90
10314;DHT22;5202;49.138;10.090;2023-02-24T10:13:07;8.10;99.90
10314;DHT22;5202;49.138;10.090;2023-02-24T10:15:42;8.00;99.90
10314;DHT22;5202;49.138;10.090;2023-02-24T10:18:30;8.00;99.90
10314;DHT22;5202;49.138;10.090;2023-02-24T10:21:08;8.00;99.90
10314;DHT22;5202;49.138;10.090;2023-02-24T10:24:02;8.00;99.90
10314;DHT22;5202;49.138;10.090;2023-02-24T10:26:38;8.00;99.90
10314;DHT22;5202;49.138;10.090;2023-02-24T10:29:37;8.00;99.90
10314;DHT22;5202;49.138;10.090;2023-02-24T10:32:18;8.00;99.90
10314;DHT22;5202;49.138;10.090;2023-02-24T10:34:51;8.00;99.90
10314;DHT22;5202;49.138;10.090;2023-02-24T10:37:22;8.00;99.90
10314;DHT22;5202;49.138;10.090;2023-02-24T10:39:57;8.10;99.90
10314;DHT22;5202;49.138;10.090;2023-02-24T10:42:36;8.00;99.90
10314;DHT22;5202;49.138;10.090;2023-02-24T10:45:15;8.10;99.90
10314;DHT22;5202;49.138;10.090;2023-02-24T10:47:50;8.20;99.90
10314;DHT22;5202;49.138;10.090;2023-02-24T10:50:26;8.20;99.90
10314;DHT22;5202;49.138;10.090;2023-02-24T10:53:04;8.20;99.90
10314;DHT22;5202;49.138;10.090;2023-02-24T10:56:02;8.30;99.90
10314;DHT22;5202;49.138;10.090;2023-02-24T10:59:01;8.30;99.90
10314;DHT22;5202;49.138;10.090;2023-02-24T11:01:52;8.30;99.90
10314;DHT22;5202;49.138;10.090;2023-02-24T11:04:31;8.10;99.90
10314;DHT22;5202;49.138;10.090;2023-02-24T11:07:19;8.10;99.90
10314;DHT22;5202;49.138;10.090;2023-02-24T11:10:15;8.10;99.90
10314;DHT22;5202;49.138;10.090;2023-02-24T11:12:53;8.10;99.90
10314;DHT22;5202;49.138;10.090;2023-02-24T11:15:42;8.10;99.90
10314;DHT22;5202;49.138;10.090;2023-02-24T11:18:31;8.10;99.90
10314;DHT22;5202;49.138;10.090;2023-02-24T11:21:02;8.00;99.90
10314;DHT22;5202;49.138;10.090;2023-02-24T11:23:35;8.00;99.90
10314;DHT22;5202;49.138;10.090;2023-02-24T11:26:12;8.10;99.90
10314;DHT22;5202;49.138;10.090;2023-02-24T11:28:54;8.10;99.90
10314;DHT22;5202;49.138;10.090;2023-02-24T11:31:47;8.10;99.90
10314;DHT22;5202;49.138;10.090;2023-02-24T11:34:32;8.10;99.90
10314;DHT22;5202;49.138;10.090;2023-02-24T11:37:25;8.00;99.90
10314;DHT22;5202;49.138;10.090;2023-02-24T11:40:02;8.10;99.90
10314;DHT22;5202;49.138;10.090;2023-02-24T11:42:38;8.00;99.90
10314;DHT22;5202;49.138;10.090;2023-02-24T11:45:17;8.00;99.90
10314;DHT22;5202;49.138;10.090;2023-02-24T11:47:54;8.00;99.90
10314;DHT22;5202;49.138;10.090;2023-02-24T11:50:33;8.00;99.90
10314;DHT22;5202;49.138;10.090;2023-02-24T11:53:16;8.00;99.90
10314;DHT22;5202;49.138;10.090;2023-02-24T11:55:53;8.10;99.90
10314;DHT22;5202;49.138;10.090;2023-02-24T11:58:31;8.00;99.90
10314;DHT22;5202;49.138;10.090;2023-02-24T12:01:07;7.90;99.90
10314;DHT22;5202;49.138;10.090;2023-02-24T12:03:47;7.90;99.90
10314;DHT22;5202;49.138;10.090;2023-02-24T12:06:29;7.90;99.90
10314;DHT22;5202;49.138;10.090;2023-02-24T12:09:06;7.90;99.90
10314;DHT22;5202;49.138;10.090;2023-02-24T12:11:44;7.80;99.90
10314;DHT22;5202;49.138;10.090;2023-02-24T12:14:24;7.80;99.90
10314;DHT22;5202;49.138;10.090;2023-02-24T12:17:01;7.80;99.90
10314;DHT22;5202;49.138;10.090;2023-02-24T12:19:47;7.70;99.90
10314;DHT22;5202;49.138;10.090;2023-02-24T12:22:23;7.70;99.90
10314;DHT22;5202;49.138;10.090;2023-02-24T12:24:56;7.60;99.90
10314;DHT22;5202;49.138;10.090;2023-02-24T12:27:32;7.50;99.90
10314;DHT22;5202;49.138;10.090;2023-02-24T12:33:30;7.50;99.90
10314;DHT22;5202;49.138;10.090;2023-02-24T12:36:14;7.50;99.90
10314;DHT22;5202;49.138;10.090;2023-02-24T12:38:59;7.60;99.90
10314;DHT22;5202;49.138;10.090;2023-02-24T12:41:44;7.60;99.90
10314;DHT22;5202;49.138;10.090;2023-02-24T12:44:27;7.60;99.90
10314;DHT22;5202;49.138;10.090;2023-02-24T12:47:07;7.60;99.90
10314;DHT22;5202;49.138;10.090;2023-02-24T12:49:54;7.70;99.90
10314;DHT22;5202;49.138;10.090;2023-02-24T12:52:42;7.70;99.90
10314;DHT22;5202;49.138;10.090;2023-02-24T12:55:22;7.80;99.90
10314;DHT22;5202;49.138;10.090;2023-02-24T12:58:03;7.80;99.90
10314;DHT22;5202;49.138;10.090;2023-02-24T13:00:42;7.90;99.90
10314;DHT22;5202;49.138;10.090;2023-02-24T13:03:27;7.90;99.90
10314;DHT22;5202;49.138;10.090;2023-02-24T13:06:17;8.00;99.90
10314;DHT22;5202;49.138;10.090;2023-02-24T13:08:54;8.20;99.90
10314;DHT22;5202;49.138;10.090;2023-02-24T13:11:36;8.40;99.90
10314;DHT22;5202;49.138;10.090;2023-02-24T13:14:13;8.60;99.90
10314;DHT22;5202;49.138;10.090;2023-02-24T13:16:46;8.80;99.90
10314;DHT22;5202;49.138;10.090;2023-02-24T13:19:19;8.70;99.90
10314;DHT22;5202;49.138;10.090;2023-02-24T13:21:58;8.50;99.90
10314;DHT22;5202;49.138;10.090;2023-02-24T13:24:31;8.40;99.90
10314;DHT22;5202;49.138;10.090;2023-02-24T13:27:06;8.30;99.90
10314;DHT22;5202;49.138;10.090;2023-02-24T13:29:48;8.40;99.90
10314;DHT22;5202;49.138;10.090;2023-02-24T13:32:26;8.30;99.90
10314;DHT22;5202;49.138;10.090;2023-02-24T13:34:59;8.40;99.90
10314;DHT22;5202;49.138;10.090;2023-02-24T13:37:30;8.50;99.90
10314;DHT22;5202;49.138;10.090;2023-02-24T13:40:18;8.50;99.90
10314;DHT22;5202;49.138;10.090;2023-02-24T13:42:58;8.50;99.90
10314;DHT22;5202;49.138;10.090;2023-02-24T13:45:28;8.50;99.90
10314;DHT22;5202;49.138;10.090;2023-02-24T13:48:16;8.50;99.90
10314;DHT22;5202;49.138;10.090;2023-02-24T13:51:06;8.50;99.90
10314;DHT22;5202;49.138;10.090;2023-02-24T13:53:57;8.60;99.90
10314;DHT22;5202;49.138;10.090;2023-02-24T13:56:38;8.60;99.90
10314;DHT22;5202;49.138;10.090;2023-02-24T13:59:27;8.60;99.90
10314;DHT22;5202;49.138;10.090;2023-02-24T14:02:12;8.50;99.90
10314;DHT22;5202;49.138;10.090;2023-02-24T14:04:47;8.50;99.90
10314;DHT22;5202;49.138;10.090;2023-02-24T14:07:20;8.40;99.90
10314;DHT22;5202;49.138;10.090;2023-02-24T14:09:52;8.40;99.90
10314;DHT22;5202;49.138;10.090;2023-02-24T14:12:24;8.50;99.90
10314;DHT22;5202;49.138;10.090;2023-02-24T14:14:56;8.50;99.90
10314;DHT22;5202;49.138;10.090;2023-02-24T14:17:28;8.50;99.90
10314;DHT22;5202;49.138;10.090;2023-02-24T14:20:09;8.50;99.90
10314;DHT22;5202;49.138;10.090;2023-02-24T14:22:45;8.40;99.90
10314;DHT22;5202;49.138;10.090;2023-02-24T14:25:15;8.50;99.90
10314;DHT22;5202;49.138;10.090;2023-02-24T14:27:46;8.30;99.90
10314;DHT22;5202;49.138;10.090;2023-02-24T14:30:30;8.40;99.90
10314;DHT22;5202;49.138;10.090;2023-02-24T14:33:00;8.30;99.90
10314;DHT22;5202;49.138;10.090;2023-02-24T14:35:35;8.20;99.90
10314;DHT22;5202;49.138;10.090;2023-02-24T14:38:04;8.10;99.90
10314;DHT22;5202;49.138;10.090;2023-02-24T14:40:33;8.20;99.90
10314;DHT22;5202;49.138;10.090;2023-02-24T14:43:01;8.20;99.90
10314;DHT22;5202;49.138;10.090;2023-02-24T14:45:31;8.20;99.90
10314;DHT22;5202;49.138;10.090;2023-02-24T14:47:59;8.20;99.90
10314;DHT22;5202;49.138;10.090;2023-02-24T14:50:29;8.20;99.90
10314;DHT22;5202;49.138;10.090;2023-02-24T14:53:02;8.20;99.90
10314;DHT22;5202;49.138;10.090;2023-02-24T14:55:35;8.20;99.90
10314;DHT22;5202;49.138;10.090;2023-02-24T14:58:07;8.20;99.90
10314;DHT22;5202;49.138;10.090;2023-02-24T15:00:46;8.20;99.90
10314;DHT22;5202;49.138;10.090;2023-02-24T15:03:19;8.20;99.90
10314;DHT22;5202;49.138;10.090;2023-02-24T15:05:54;8.20;99.90
10314;DHT22;5202;49.138;10.090;2023-02-24T15:08:32;8.20;99.90
10314;DHT22;5202;49.138;10.090;2023-02-24T15:11:07;8.20;99.90
10314;DHT22;5202;49.138;10.090;2023-02-24T15:13:40;8.10;99.90
10314;DHT22;5202;49.138;10.090;2023-02-24T15:16:13;8.20;99.90
10314;DHT22;5202;49.138;10.090;2023-02-24T15:18:49;8.20;99.90
10314;DHT22;5202;49.138;10.090;2023-02-24T15:21:21;8.20;99.90
10314;DHT22;5202;49.138;10.090;2023-02-24T15:23:58;8.10;99.90
10314;DHT22;5202;49.138;10.090;2023-02-24T15:26:28;8.10;99.90
10314;DHT22;5202;49.138;10.090;2023-02-24T15:29:10;8.30;99.90
10314;DHT22;5202;49.138;10.090;2023-02-24T15:31:47;8.50;99.90
10314;DHT22;5202;49.138;10.090;2023-02-24T15:34:20;8.50;99.90
10314;DHT22;5202;49.138;10.090;2023-02-24T15:36:51;8.60;99.90
10314;DHT22;5202;49.138;10.090;2023-02-24T15:39:25;8.50;99.90
10314;DHT22;5202;49.138;10.090;2023-02-24T15:42:06;8.40;99.90
10314;DHT22;5202;49.138;10.090;2023-02-24T15:44:35;8.40;99.90
10314;DHT22;5202;49.138;10.090;2023-02-24T15:47:20;8.30;99.90
10314;DHT22;5202;49.138;10.090;2023-02-24T15:49:50;8.20;99.90
10314;DHT22;5202;49.138;10.090;2023-02-24T15:52:22;8.20;99.90
10314;DHT22;5202;49.138;10.090;2023-02-24T15:54:51;8.20;99.90
10314;DHT22;5202;49.138;10.090;2023-02-24T15:57:22;8.10;99.90
10314;DHT22;5202;49.138;10.090;2023-02-24T15:59:51;8.10;99.90
10314;DHT22;5202;49.138;10.090;2023-02-24T16:02:21;8.10;99.90
10314;DHT22;5202;49.138;10.090;2023-02-24T16:04:51;8.10;99.90
10314;DHT22;5202;49.138;10.090;2023-02-24T16:07:20;8.00;99.90
10314;DHT22;5202;49.138;10.090;2023-02-24T16:09:51;8.00;99.90
10314;DHT22;5202;49.138;10.090;2023-02-24T16:12:23;8.00;99.90
10314;DHT22;5202;49.138;10.090;2023-02-24T16:14:54;7.90;99.90
10314;DHT22;5202;49.138;10.090;2023-02-24T16:17:32;8.00;99.90
10314;DHT22;5202;49.138;10.090;2023-02-24T16:20:06;8.00;99.90
10314;DHT22;5202;49.138;10.090;2023-02-24T16:22:37;8.00;99.90
10314;DHT22;5202;49.138;10.090;2023-02-24T16:25:06;8.00;99.90
10314;DHT22;5202;49.138;10.090;2023-02-24T16:27:35;7.90;99.90
10314;DHT22;5202;49.138;10.090;2023-02-24T16:30:04;7.90;99.90
10314;DHT22;5202;49.138;10.090;2023-02-24T16:32:35;7.90;99.90
10314;DHT22;5202;49.138;10.090;2023-02-24T16:35:05;7.80;99.90
10314;DHT22;5202;49.138;10.090;2023-02-24T16:37:37;7.80;99.90
10314;DHT22;5202;49.138;10.090;2023-02-24T16:40:33;7.70;99.90
10314;DHT22;5202;49.138;10.090;2023-02-24T16:43:03;7.70;99.90